Time;durP1;ratioP1;P1;durP2;ratioP2;P2;SDS_P1;SDS_P2;PMS_P1;PMS_P2;Temp;Humidity;BMP_temperature;BMP_pressure;BME280_temperature;BME280_humidity;BME280_pressure;Samples;Min_cycle;Max_cycle;Signal;HPM_P1;HPM_P2
2023/05/16 00:08:58;;;;;;;11.33;9.50;;;;;;;8.50;70.21;100521.34;20190716;29;20344;-77
2023/05/16 00:19:01;;;;;;;9.13;8.17;;;;;;;8.44;70.78;100530.25;20195652;29;20194;-76
2023/05/16 00:29:05;;;;;;;8.40;7.22;;;;;;;8.82;68.24;100531.44;20166279;29;20198;-79
2023/05/16 00:39:09;;;;;;;8.52;6.30;;;;;;;8.63;70.14;100536.50;20195720;29;20621;-77
2023/05/16 00:49:12;;;;;;;8.67;6.40;;;;;;;8.43;69.97;100540.66;20197976;29;20225;-76
2023/05/16 00:59:15;;;;;;;5.80;5.23;;;;;;;8.56;69.80;100543.72;20197774;29;20234;-76
2023/05/16 01:09:18;;;;;;;4.40;3.78;;;;;;;8.20;70.08;100552.28;20192547;29;20235;-86
2023/05/16 01:19:57;;;;;;;4.63;3.90;;;;;;;8.52;70.28;100554.81;20210000;29;20198;-77
2023/05/16 01:30:50;;;;;;;3.43;2.80;;;;;;;8.32;69.81;100558.97;20202956;29;20234;-76
2023/05/16 01:41:01;;;;;;;3.10;2.40;;;;;;;7.07;72.47;100570.09;20209365;29;20221;-76
2023/05/16 01:51:03;;;;;;;2.00;0.80;;;;;;;6.37;73.89;100584.34;20212958;29;20240;-76
2023/05/16 02:01:06;;;;;;;1.93;0.90;;;;;;;6.36;74.23;100596.69;20208224;29;20567;-76
2023/05/16 02:11:08;;;;;;;7.70;1.53;;;;;;;6.63;73.30;100615.59;20194986;29;20222;-76
2023/05/16 02:21:10;;;;;;;3.73;1.50;;;;;;;6.77;71.26;100633.28;20204376;29;20206;-76
2023/05/16 02:31:13;;;;;;;5.77;1.70;;;;;;;7.10;69.91;100636.84;20206544;29;20500;-76
2023/05/16 02:41:15;;;;;;;6.80;2.00;;;;;;;6.95;71.37;100645.59;20199644;29;20266;-75
2023/05/16 02:51:19;;;;;;;4.53;1.50;;;;;;;6.96;70.37;100659.31;20206033;29;20237;-77
2023/05/16 03:01:21;;;;;;;9.18;1.73;;;;;;;7.11;69.05;100665.75;20174843;29;20217;-89
2023/05/16 03:11:24;;;;;;;6.83;2.03;;;;;;;6.82;71.34;100669.69;20200563;29;20487;-77
2023/05/16 03:21:26;;;;;;;7.77;1.90;;;;;;;6.40;72.16;100690.31;20202964;29;20206;-78
2023/05/16 03:31:29;;;;;;;10.43;2.10;;;;;;;6.33;70.86;100692.66;20174584;29;20254;-76
2023/05/16 03:41:31;;;;;;;7.07;1.70;;;;;;;6.63;69.07;100697.78;20198968;29;20282;-76
2023/05/16 03:51:33;;;;;;;12.13;1.97;;;;;;;6.55;66.34;100715.31;20191028;29;20230;-76
2023/05/16 04:01:35;;;;;;;9.37;1.80;;;;;;;6.59;69.11;100724.78;20191887;29;20221;-77
2023/05/16 04:11:38;;;;;;;6.90;1.70;;;;;;;6.32;69.25;100750.69;20178508;29;20198;-76
2023/05/16 04:21:40;;;;;;;14.47;2.50;;;;;;;6.64;66.65;100758.38;20191786;29;20261;-77
2023/05/16 04:31:42;;;;;;;11.70;2.05;;;;;;;6.11;65.36;100779.34;20189783;29;20202;-77
2023/05/16 04:41:45;;;;;;;7.40;1.63;;;;;;;5.93;66.69;100792.22;20225304;29;20534;-79
2023/05/16 04:51:47;;;;;;;7.87;1.97;;;;;;;6.07;65.35;100803.50;20208172;29;20710;-77
2023/05/16 05:01:49;;;;;;;62.27;37.90;;;;;;;7.12;69.24;100803.00;20213324;29;20226;-82
2023/05/16 05:11:52;;;;;;;10.60;2.33;;;;;;;6.57;62.49;100827.22;20170463;29;20473;-78
2023/05/16 05:21:54;;;;;;;7.37;2.10;;;;;;;5.84;67.06;100838.81;20215303;29;20657;-77
2023/05/16 05:31:56;;;;;;;11.90;2.30;;;;;;;5.95;65.29;100849.59;20219423;29;20186;-78
2023/05/16 05:41:58;;;;;;;9.47;1.93;;;;;;;5.70;65.16;100857.47;20215909;29;20214;-78
2023/05/16 05:52:00;;;;;;;9.70;2.10;;;;;;;6.07;63.76;100865.16;20187251;29;20555;-79
2023/05/16 06:02:03;;;;;;;8.90;1.43;;;;;;;5.72;63.71;100886.03;20151783;29;20222;-82
2023/05/16 06:12:05;;;;;;;7.40;1.50;;;;;;;5.86;63.00;100890.63;20188157;29;20222;-77
2023/05/16 06:22:07;;;;;;;11.43;1.93;;;;;;;6.00;61.96;100897.19;20155832;29;20250;-76
2023/05/16 06:32:09;;;;;;;7.47;1.73;;;;;;;6.43;60.73;100883.19;20189726;29;20198;-76
2023/05/16 06:42:14;;;;;;;9.00;1.67;;;;;;;6.15;64.65;100900.94;20113470;29;20286;-76
2023/05/16 06:52:17;;;;;;;12.55;1.48;;;;;;;6.39;60.31;100904.56;20175186;29;20226;-77
2023/05/16 07:02:19;;;;;;;12.60;2.33;;;;;;;7.09;58.44;100899.09;20194189;29;20223;-77
2023/05/16 07:12:21;;;;;;;11.60;1.57;;;;;;;7.15;55.88;100917.50;20138236;29;20195;-77
2023/05/16 07:22:23;;;;;;;10.93;1.20;;;;;;;7.58;53.99;100906.13;20181110;29;20229;-78
2023/05/16 07:32:25;;;;;;;4.00;0.80;;;;;;;7.77;54.76;100913.38;20181510;29;20229;-78
2023/05/16 07:42:28;;;;;;;7.07;1.30;;;;;;;7.90;50.35;100902.47;20163246;29;20249;-77
2023/05/16 07:52:30;;;;;;;12.83;1.03;;;;;;;8.11;52.17;100918.63;20155331;29;20259;-82
2023/05/16 08:02:33;;;;;;;4.10;0.47;;;;;;;7.78;48.05;100917.00;20181182;29;20243;-77
2023/05/16 08:12:35;;;;;;;6.63;0.93;;;;;;;7.72;48.12;100919.09;20178008;29;20209;-77
2023/05/16 08:22:37;;;;;;;10.00;0.50;;;;;;;8.35;45.22;100909.97;20174193;29;20270;-77
2023/05/16 08:32:40;;;;;;;6.28;1.50;;;;;;;8.79;43.78;100920.56;20185285;29;20194;-78
2023/05/16 08:42:42;;;;;;;4.53;0.55;;;;;;;8.33;45.47;100929.16;20132223;29;20635;-77
2023/05/16 08:52:46;;;;;;;5.67;0.70;;;;;;;8.82;41.23;100905.88;20108633;29;20222;-85
2023/05/16 09:02:48;;;;;;;6.37;1.40;;;;;;;8.08;43.83;100929.66;20125700;29;20527;-78
2023/05/16 09:12:51;;;;;;;6.00;0.90;;;;;;;8.29;42.86;100928.09;20167909;29;20269;-76
2023/05/16 09:22:55;;;;;;;6.73;0.90;;;;;;;10.39;39.89;100900.06;20181812;29;20254;-85
2023/05/16 09:32:57;;;;;;;4.05;0.57;;;;;;;10.26;40.14;100907.50;20188469;29;20201;-77
2023/05/16 09:43:05;;;;;;;5.17;0.90;;;;;;;9.30;39.78;100916.56;20190007;29;20411;-78
2023/05/16 09:53:07;;;;;;;5.57;0.70;;;;;;;8.67;40.98;100920.28;20204904;29;20297;-82
2023/05/16 10:03:10;;;;;;;2.93;0.40;;;;;;;9.66;40.29;100904.41;20190434;29;20229;-85
2023/05/16 10:13:13;;;;;;;3.42;0.50;;;;;;;10.48;39.72;100893.28;20194528;29;20194;-85
2023/05/16 10:23:18;;;;;;;4.10;0.63;;;;;;;10.27;36.93;100895.91;20168343;29;20221;-83
2023/05/16 10:33:20;;;;;;;2.85;0.50;;;;;;;9.41;38.33;100909.53;20166863;29;20218;-85
2023/05/16 10:43:25;;;;;;;4.32;0.60;;;;;;;10.93;36.44;100893.91;20192226;29;20234;-81
2023/05/16 10:53:27;;;;;;;3.53;0.60;;;;;;;10.58;35.33;100886.56;20175443;29;20222;-78
2023/05/16 11:03:29;;;;;;;3.17;0.70;;;;;;;11.27;39.14;100893.06;20166728;29;20254;-84
2023/05/16 11:13:32;;;;;;;2.50;0.50;;;;;;;11.20;36.74;100889.09;20194719;29;20603;-85
2023/05/16 11:23:34;;;;;;;2.20;0.70;;;;;;;10.16;35.71;100888.06;20177144;29;20694;-84
2023/05/16 11:33:38;;;;;;;4.55;0.40;;;;;;;11.82;34.33;100863.19;20184470;29;20202;-81
2023/05/16 11:43:42;;;;;;;4.03;0.40;;;;;;;10.78;36.19;100888.72;20184268;29;20246;-84
2023/05/16 11:53:48;;;;;;;4.57;0.77;;;;;;;9.60;38.00;100892.41;20182697;29;20234;-81
2023/05/16 12:03:55;;;;;;;3.88;0.50;;;;;;;8.97;43.49;100903.84;20165931;29;20218;-81
2023/05/16 12:13:59;;;;;;;5.27;1.00;;;;;;;9.38;47.96;100907.34;20129027;29;20202;-79
2023/05/16 12:24:02;;;;;;;1.93;0.30;;;;;;;10.61;46.18;100895.19;20150528;29;20278;-82
2023/05/16 12:34:04;;;;;;;3.17;0.33;;;;;;;10.73;42.01;100888.91;20158897;29;20193;-81
2023/05/16 12:44:15;;;;;;;1.92;0.40;;;;;;;9.90;40.53;100905.69;20180035;29;20639;-77
2023/05/16 12:54:19;;;;;;;2.80;0.50;;;;;;;10.42;39.89;100896.59;20160879;29;20225;-79
2023/05/16 13:04:22;;;;;;;2.90;0.30;;;;;;;10.58;39.33;100898.69;20184822;29;20282;-78
2023/05/16 13:14:24;;;;;;;3.67;0.70;;;;;;;9.90;40.88;100913.31;20189391;29;20238;-88
2023/05/16 13:24:26;;;;;;;2.63;0.30;;;;;;;10.64;39.36;100902.16;20176499;29;20251;-84
2023/05/16 13:34:31;;;;;;;2.93;0.67;;;;;;;11.79;35.99;100892.16;20169065;29;20195;-78
2023/05/16 13:44:33;;;;;;;1.08;0.35;;;;;;;10.85;33.44;100908.88;20203917;29;20214;-80
2023/05/16 13:54:35;;;;;;;3.25;0.30;;;;;;;10.63;34.32;100904.16;20148539;29;20230;-84
2023/05/16 14:04:37;;;;;;;1.75;0.30;;;;;;;12.21;33.68;100894.03;20167454;29;20492;-79
2023/05/16 14:14:40;;;;;;;2.45;0.43;;;;;;;11.85;32.47;100902.13;20189140;29;20230;-87
2023/05/16 14:24:42;;;;;;;2.10;0.57;;;;;;;11.64;32.43;100914.16;20169750;29;20259;-76
2023/05/16 14:34:45;;;;;;;7.38;0.52;;;;;;;11.87;32.60;100906.31;20175469;29;20194;-80
2023/05/16 14:44:48;;;;;;;3.40;1.00;;;;;;;11.68;34.53;100917.97;20166692;29;20222;-82
2023/05/16 14:54:50;;;;;;;4.00;0.35;;;;;;;11.62;33.29;100922.16;20158542;29;20222;-77
2023/05/16 15:04:53;;;;;;;3.33;0.50;;;;;;;11.47;33.92;100931.16;20162476;29;20279;-76
2023/05/16 15:14:55;;;;;;;2.17;0.40;;;;;;;11.00;34.56;100938.59;20177539;29;20250;-77
2023/05/16 15:24:58;;;;;;;4.18;0.85;;;;;;;10.58;36.10;100948.66;20173060;29;20237;-77
2023/05/16 15:35:00;;;;;;;3.42;0.77;;;;;;;10.16;38.54;100969.88;20166840;29;20504;-79
2023/05/16 15:45:02;;;;;;;3.28;1.00;;;;;;;10.11;39.19;100989.75;20167266;29;20226;-87
2023/05/16 15:55:05;;;;;;;4.40;0.80;;;;;;;9.63;39.66;100998.91;20171693;29;20233;-78
2023/05/16 16:05:07;;;;;;;2.77;0.90;;;;;;;10.33;39.46;100992.53;20169365;29;20237;-86
2023/05/16 16:15:11;;;;;;;2.60;0.73;;;;;;;10.17;40.19;101009.06;20188637;29;20238;-90
2023/05/16 16:25:13;;;;;;;4.00;0.60;;;;;;;10.54;39.08;101009.75;20167752;29;20627;-78
2023/05/16 16:35:17;;;;;;;3.73;0.37;;;;;;;10.22;38.57;101008.06;20177834;29;20250;-78
2023/05/16 16:45:20;;;;;;;3.08;0.45;;;;;;;9.98;40.44;101008.44;20186274;29;20851;-77
2023/05/16 16:55:30;;;;;;;2.88;0.80;;;;;;;9.79;41.20;101017.09;20168070;29;20301;-81
2023/05/16 17:05:32;;;;;;;4.97;1.05;;;;;;;9.59;42.28;101025.22;20172613;29;20596;-77
2023/05/16 17:15:36;;;;;;;5.77;1.90;;;;;;;9.26;42.24;101045.13;20181975;29;20223;-77
2023/05/16 17:25:39;;;;;;;4.68;1.48;;;;;;;9.78;42.22;101049.28;20183234;29;20247;-81
2023/05/16 17:35:42;;;;;;;4.22;1.75;;;;;;;10.12;43.00;101057.13;20175713;29;20818;-77
2023/05/16 17:45:44;;;;;;;3.30;1.33;;;;;;;9.96;43.17;101074.78;20160832;29;20237;-77
2023/05/16 17:55:48;;;;;;;3.90;1.73;;;;;;;10.62;40.71;101062.59;20192491;29;20242;-77
2023/05/16 18:05:53;;;;;;;3.47;1.73;;;;;;;9.38;44.27;101082.03;20176430;29;20222;-85
2023/05/16 18:15:57;;;;;;;3.10;1.60;;;;;;;9.42;44.26;101080.28;20180677;29;20663;-80
2023/05/16 18:25:59;;;;;;;4.30;1.63;;;;;;;9.24;43.32;101092.50;20165655;29;20287;-78
2023/05/16 18:36:03;;;;;;;5.73;1.50;;;;;;;9.52;43.37;101093.28;20186338;29;20190;-78
2023/05/16 18:46:05;;;;;;;3.77;1.20;;;;;;;8.57;44.37;101109.03;20202990;29;20218;-77
2023/05/16 18:56:07;;;;;;;4.23;1.60;;;;;;;8.48;44.89;101102.47;20192897;29;20284;-78
2023/05/16 19:06:10;;;;;;;2.90;1.53;;;;;;;9.19;43.42;101109.50;20203915;29;20221;-78
2023/05/16 19:16:12;;;;;;;3.60;1.53;;;;;;;9.17;43.87;101118.31;20170567;29;20595;-78
2023/05/16 19:26:15;;;;;;;2.78;1.30;;;;;;;9.20;43.04;101128.06;20160209;29;20321;-78
2023/05/16 19:36:17;;;;;;;5.90;1.58;;;;;;;9.39;43.75;101136.44;20185149;29;20197;-90
2023/05/16 19:46:20;;;;;;;3.83;1.30;;;;;;;9.16;43.21;101144.78;20168525;29;20258;-77
2023/05/16 19:56:22;;;;;;;6.15;1.50;;;;;;;9.48;42.75;101146.63;20190253;29;20222;-78
2023/05/16 20:06:24;;;;;;;2.92;1.40;;;;;;;9.32;43.80;101153.75;20170431;29;20221;-81
2023/05/16 20:16:26;;;;;;;6.50;1.63;;;;;;;8.91;44.98;101167.00;20183850;29;20226;-79
2023/05/16 20:26:29;;;;;;;6.50;1.50;;;;;;;9.17;44.97;101168.16;20174352;29;20234;-78
2023/05/16 20:36:40;;;;;;;5.93;1.60;;;;;;;9.31;45.06;101176.59;20180732;29;20703;-87
2023/05/16 20:46:45;;;;;;;5.53;1.33;;;;;;;8.76;46.08;101185.84;20182968;29;20639;-90
2023/05/16 20:56:47;;;;;;;2.55;1.13;;;;;;;8.24;47.48;101180.53;20192439;29;20238;-79
2023/05/16 21:06:50;;;;;;;1.93;0.90;;;;;;;8.43;47.40;101186.97;20176902;29;20317;-79
2023/05/16 21:16:52;;;;;;;2.83;0.90;;;;;;;8.30;48.13;101196.19;20190372;29;20202;-79
2023/05/16 21:26:55;;;;;;;2.88;1.27;;;;;;;8.82;46.96;101184.59;20185995;29;20230;-79
2023/05/16 21:36:58;;;;;;;6.13;1.13;;;;;;;8.31;48.29;101190.25;20215003;29;20186;-79
2023/05/16 21:47:00;;;;;;;2.45;0.90;;;;;;;8.12;49.75;101190.28;20180870;29;20801;-88
2023/05/16 21:57:03;;;;;;;4.17;1.03;;;;;;;7.95;51.31;101191.94;20182622;29;20230;-86
2023/05/16 22:07:05;;;;;;;3.72;0.80;;;;;;;7.77;51.12;101199.22;20175709;29;20695;-79
2023/05/16 22:17:07;;;;;;;3.08;0.82;;;;;;;7.54;52.79;101202.88;20165100;29;20230;-79
2023/05/16 22:27:09;;;;;;;4.03;1.00;;;;;;;7.50;53.99;101208.25;20181305;29;20262;-78
2023/05/16 22:37:11;;;;;;;3.77;1.20;;;;;;;7.88;52.47;101206.38;20182224;29;20202;-83
2023/05/16 22:47:13;;;;;;;2.47;0.70;;;;;;;7.22;55.04;101224.06;20163906;29;20262;-80
2023/05/16 22:57:15;;;;;;;3.53;1.00;;;;;;;7.52;53.33;101227.63;20166511;29;20734;-79
2023/05/16 23:07:18;;;;;;;2.50;0.63;;;;;;;6.98;55.01;101229.66;20175505;29;20260;-80
2023/05/16 23:17:20;;;;;;;3.70;0.80;;;;;;;6.95;55.23;101237.84;20163264;29;20281;-81
2023/05/16 23:27:22;;;;;;;4.40;0.90;;;;;;;6.76;56.24;101250.91;20169053;29;20882;-79
2023/05/16 23:37:24;;;;;;;2.80;1.40;;;;;;;6.39;57.85;101243.91;20177490;29;20198;-84
2023/05/16 23:47:26;;;;;;;2.77;1.00;;;;;;;6.62;56.74;101245.16;20171539;29;20222;-79
2023/05/16 23:57:28;;;;;;;4.53;1.47;;;;;;;6.73;57.28;101241.97;20161550;29;20251;-79
